Terminal Aerodrome Forecast
Issued by NWS Cleveland, OH

Home | Current Version | Previous Version | Text Only | Print | Product List | Glossary Off
Versions: 1 2 3 4 5 6 7 8 9 10 11 12 13

000
FTUS41 KCLE 021007 AAA
TAFERI
TAF AMD
KERI 021007Z 0210/0306 VRB03KT P6SM SCT015 OVC250
      TEMPO 0210/0213 BKN015
     FM021500 02006KT P6SM BKN060
     FM021800 02008KT P6SM SCT250
     FM030100 05005KT P6SM SKC=

USA.gov is the U.S. government's official web portal to all federal, state and local government web resources and services.